sensor_id;sensor_type;location;lat;lon;timestamp;temperature;humidity
32811;DHT22;65470;47.324;8.548;2023-05-20T00:00:57;14.50;99.90
32811;DHT22;65470;47.324;8.548;2023-05-20T00:03:23;14.50;99.90
32811;DHT22;65470;47.324;8.548;2023-05-20T00:05:48;14.50;99.90
32811;DHT22;65470;47.324;8.548;2023-05-20T00:08:14;14.40;99.90
32811;DHT22;65470;47.324;8.548;2023-05-20T00:10:40;14.40;99.90
32811;DHT22;65470;47.324;8.548;2023-05-20T00:13:06;14.30;99.90
32811;DHT22;65470;47.324;8.548;2023-05-20T00:15:32;14.20;99.90
32811;DHT22;65470;47.324;8.548;2023-05-20T00:18:00;14.20;99.90
32811;DHT22;65470;47.324;8.548;2023-05-20T00:20:26;14.00;99.90
32811;DHT22;65470;47.324;8.548;2023-05-20T00:22:51;14.00;99.90
32811;DHT22;65470;47.324;8.548;2023-05-20T00:25:17;14.00;99.90
32811;DHT22;65470;47.324;8.548;2023-05-20T00:27:43;13.80;99.90
32811;DHT22;65470;47.324;8.548;2023-05-20T00:30:09;13.70;99.90
32811;DHT22;65470;47.324;8.548;2023-05-20T00:32:35;13.70;99.90
32811;DHT22;65470;47.324;8.548;2023-05-20T00:35:01;13.60;99.90
32811;DHT22;65470;47.324;8.548;2023-05-20T00:37:27;13.60;99.90
32811;DHT22;65470;47.324;8.548;2023-05-20T00:39:53;13.60;99.90
32811;DHT22;65470;47.324;8.548;2023-05-20T00:42:27;13.50;99.90
32811;DHT22;65470;47.324;8.548;2023-05-20T00:44:53;13.40;99.90
32811;DHT22;65470;47.324;8.548;2023-05-20T00:47:27;13.30;99.90
32811;DHT22;65470;47.324;8.548;2023-05-20T00:49:54;13.30;99.90
32811;DHT22;65470;47.324;8.548;2023-05-20T00:52:21;13.20;99.90
32811;DHT22;65470;47.324;8.548;2023-05-20T00:54:48;13.20;99.90
32811;DHT22;65470;47.324;8.548;2023-05-20T00:57:14;13.10;99.90
32811;DHT22;65470;47.324;8.548;2023-05-20T00:59:41;13.10;99.90
32811;DHT22;65470;47.324;8.548;2023-05-20T01:02:06;13.00;99.90
32811;DHT22;65470;47.324;8.548;2023-05-20T01:04:32;12.90;99.90
32811;DHT22;65470;47.324;8.548;2023-05-20T01:07:00;12.90;99.90
32811;DHT22;65470;47.324;8.548;2023-05-20T01:09:26;12.90;99.90
32811;DHT22;65470;47.324;8.548;2023-05-20T01:12:07;12.90;99.90
32811;DHT22;65470;47.324;8.548;2023-05-20T01:14:39;12.80;99.90
32811;DHT22;65470;47.324;8.548;2023-05-20T01:17:07;12.80;99.90
32811;DHT22;65470;47.324;8.548;2023-05-20T01:19:44;12.80;99.90
32811;DHT22;65470;47.324;8.548;2023-05-20T01:22:12;12.80;99.90
32811;DHT22;65470;47.324;8.548;2023-05-20T01:24:43;12.70;99.90
32811;DHT22;65470;47.324;8.548;2023-05-20T01:27:10;12.70;99.90
32811;DHT22;65470;47.324;8.548;2023-05-20T01:29:38;12.70;99.90
32811;DHT22;65470;47.324;8.548;2023-05-20T01:32:11;12.60;99.90
32811;DHT22;65470;47.324;8.548;2023-05-20T01:34:40;12.60;99.90
32811;DHT22;65470;47.324;8.548;2023-05-20T01:37:07;12.60;99.90
32811;DHT22;65470;47.324;8.548;2023-05-20T01:39:35;12.60;99.90
32811;DHT22;65470;47.324;8.548;2023-05-20T01:42:03;12.60;99.90
32811;DHT22;65470;47.324;8.548;2023-05-20T01:44:29;12.70;99.90
32811;DHT22;65470;47.324;8.548;2023-05-20T01:46:55;12.70;99.90
32811;DHT22;65470;47.324;8.548;2023-05-20T01:49:20;12.70;99.90
32811;DHT22;65470;47.324;8.548;2023-05-20T01:51:46;12.70;99.90
32811;DHT22;65470;47.324;8.548;2023-05-20T01:54:12;12.70;99.90
32811;DHT22;65470;47.324;8.548;2023-05-20T01:56:37;12.70;99.90
32811;DHT22;65470;47.324;8.548;2023-05-20T01:59:03;12.60;99.90
32811;DHT22;65470;47.324;8.548;2023-05-20T02:04:52;12.60;99.90
32811;DHT22;65470;47.324;8.548;2023-05-20T02:07:18;12.60;99.90
32811;DHT22;65470;47.324;8.548;2023-05-20T02:09:44;12.60;99.90
32811;DHT22;65470;47.324;8.548;2023-05-20T02:12:09;12.60;99.90
32811;DHT22;65470;47.324;8.548;2023-05-20T02:14:55;12.60;99.90
32811;DHT22;65470;47.324;8.548;2023-05-20T02:17:21;12.50;99.90
32811;DHT22;65470;47.324;8.548;2023-05-20T02:19:47;12.50;99.90
32811;DHT22;65470;47.324;8.548;2023-05-20T02:22:13;12.40;99.90
32811;DHT22;65470;47.324;8.548;2023-05-20T02:24:38;12.40;99.90
32811;DHT22;65470;47.324;8.548;2023-05-20T02:27:04;12.40;99.90
32811;DHT22;65470;47.324;8.548;2023-05-20T02:29:31;12.40;99.90
32811;DHT22;65470;47.324;8.548;2023-05-20T02:31:57;12.30;99.90
32811;DHT22;65470;47.324;8.548;2023-05-20T02:34:23;12.20;99.90
32811;DHT22;65470;47.324;8.548;2023-05-20T02:36:50;12.20;99.90
32811;DHT22;65470;47.324;8.548;2023-05-20T02:39:16;12.10;99.90
32811;DHT22;65470;47.324;8.548;2023-05-20T02:41:41;12.10;99.90
32811;DHT22;65470;47.324;8.548;2023-05-20T02:44:07;12.00;99.90
32811;DHT22;65470;47.324;8.548;2023-05-20T02:46:33;11.90;99.90
32811;DHT22;65470;47.324;8.548;2023-05-20T02:48:58;11.90;99.90
32811;DHT22;65470;47.324;8.548;2023-05-20T02:51:24;11.90;99.90
32811;DHT22;65470;47.324;8.548;2023-05-20T02:53:50;11.80;99.90
32811;DHT22;65470;47.324;8.548;2023-05-20T02:56:15;11.80;99.90
32811;DHT22;65470;47.324;8.548;2023-05-20T02:58:46;11.70;99.90
32811;DHT22;65470;47.324;8.548;2023-05-20T03:01:11;11.70;99.90
32811;DHT22;65470;47.324;8.548;2023-05-20T03:03:37;11.80;99.90
32811;DHT22;65470;47.324;8.548;2023-05-20T03:06:05;11.70;99.90
32811;DHT22;65470;47.324;8.548;2023-05-20T03:08:32;11.70;99.90
32811;DHT22;65470;47.324;8.548;2023-05-20T03:10:59;11.70;99.90
32811;DHT22;65470;47.324;8.548;2023-05-20T03:13:24;11.60;99.90
32811;DHT22;65470;47.324;8.548;2023-05-20T03:15:50;11.50;99.90
32811;DHT22;65470;47.324;8.548;2023-05-20T03:18:16;11.50;99.90
32811;DHT22;65470;47.324;8.548;2023-05-20T03:20:41;11.50;99.90
32811;DHT22;65470;47.324;8.548;2023-05-20T03:23:07;11.50;99.90
32811;DHT22;65470;47.324;8.548;2023-05-20T03:25:33;11.50;99.90
32811;DHT22;65470;47.324;8.548;2023-05-20T03:27:59;11.50;99.90
32811;DHT22;65470;47.324;8.548;2023-05-20T03:30:25;11.50;99.90
32811;DHT22;65470;47.324;8.548;2023-05-20T03:32:52;11.50;99.90
32811;DHT22;65470;47.324;8.548;2023-05-20T03:35:18;11.50;99.90
32811;DHT22;65470;47.324;8.548;2023-05-20T03:37:43;11.50;99.90
32811;DHT22;65470;47.324;8.548;2023-05-20T03:40:09;11.50;99.90
32811;DHT22;65470;47.324;8.548;2023-05-20T03:42:36;11.40;99.90
32811;DHT22;65470;47.324;8.548;2023-05-20T03:45:02;11.30;99.90
32811;DHT22;65470;47.324;8.548;2023-05-20T03:47:27;11.30;99.90
32811;DHT22;65470;47.324;8.548;2023-05-20T03:49:53;11.30;99.90
32811;DHT22;65470;47.324;8.548;2023-05-20T03:52:19;11.30;99.90
32811;DHT22;65470;47.324;8.548;2023-05-20T03:54:45;11.30;99.90
32811;DHT22;65470;47.324;8.548;2023-05-20T03:57:11;11.30;99.90
32811;DHT22;65470;47.324;8.548;2023-05-20T03:59:37;11.30;99.90
32811;DHT22;65470;47.324;8.548;2023-05-20T04:02:03;11.30;99.90
32811;DHT22;65470;47.324;8.548;2023-05-20T04:04:29;11.30;99.90
32811;DHT22;65470;47.324;8.548;2023-05-20T04:06:55;11.30;99.90
32811;DHT22;65470;47.324;8.548;2023-05-20T04:09:21;11.30;99.90
32811;DHT22;65470;47.324;8.548;2023-05-20T04:11:47;11.40;99.90
32811;DHT22;65470;47.324;8.548;2023-05-20T04:14:13;11.50;99.90
32811;DHT22;65470;47.324;8.548;2023-05-20T04:16:39;11.50;99.90
32811;DHT22;65470;47.324;8.548;2023-05-20T04:19:05;11.60;99.90
32811;DHT22;65470;47.324;8.548;2023-05-20T04:21:31;11.60;99.90
32811;DHT22;65470;47.324;8.548;2023-05-20T04:23:57;11.80;99.90
32811;DHT22;65470;47.324;8.548;2023-05-20T04:26:23;11.90;99.90
32811;DHT22;65470;47.324;8.548;2023-05-20T04:28:49;12.00;99.90
32811;DHT22;65470;47.324;8.548;2023-05-20T04:31:15;12.20;99.90
32811;DHT22;65470;47.324;8.548;2023-05-20T04:33:40;12.30;99.90
32811;DHT22;65470;47.324;8.548;2023-05-20T04:36:09;12.40;99.90
32811;DHT22;65470;47.324;8.548;2023-05-20T04:38:36;12.60;99.90
32811;DHT22;65470;47.324;8.548;2023-05-20T04:41:02;12.80;99.90
32811;DHT22;65470;47.324;8.548;2023-05-20T04:43:28;13.00;99.90
32811;DHT22;65470;47.324;8.548;2023-05-20T04:45:56;13.10;99.90
32811;DHT22;65470;47.324;8.548;2023-05-20T04:48:22;13.30;99.90
32811;DHT22;65470;47.324;8.548;2023-05-20T04:50:48;13.40;99.90
32811;DHT22;65470;47.324;8.548;2023-05-20T04:53:15;13.60;99.90
32811;DHT22;65470;47.324;8.548;2023-05-20T04:55:40;13.90;99.90
32811;DHT22;65470;47.324;8.548;2023-05-20T04:58:08;14.10;99.90
32811;DHT22;65470;47.324;8.548;2023-05-20T05:00:49;14.30;99.90
32811;DHT22;65470;47.324;8.548;2023-05-20T05:03:14;14.30;99.90
32811;DHT22;65470;47.324;8.548;2023-05-20T05:05:40;14.50;99.90
32811;DHT22;65470;47.324;8.548;2023-05-20T05:08:07;14.60;99.90
32811;DHT22;65470;47.324;8.548;2023-05-20T05:10:34;14.80;99.90
32811;DHT22;65470;47.324;8.548;2023-05-20T05:13:00;14.90;99.90
32811;DHT22;65470;47.324;8.548;2023-05-20T05:15:26;15.00;99.90
32811;DHT22;65470;47.324;8.548;2023-05-20T05:17:52;15.00;99.90
32811;DHT22;65470;47.324;8.548;2023-05-20T05:20:18;15.10;99.90
32811;DHT22;65470;47.324;8.548;2023-05-20T05:22:44;15.20;99.90
32811;DHT22;65470;47.324;8.548;2023-05-20T05:25:10;15.30;99.90
32811;DHT22;65470;47.324;8.548;2023-05-20T05:27:36;15.40;99.90
32811;DHT22;65470;47.324;8.548;2023-05-20T05:30:03;15.30;99.90
32811;DHT22;65470;47.324;8.548;2023-05-20T05:32:29;15.40;99.90
32811;DHT22;65470;47.324;8.548;2023-05-20T05:34:55;15.50;99.90
32811;DHT22;65470;47.324;8.548;2023-05-20T05:37:20;15.50;99.90
32811;DHT22;65470;47.324;8.548;2023-05-20T05:39:46;15.70;99.90
32811;DHT22;65470;47.324;8.548;2023-05-20T05:42:12;15.80;99.90
32811;DHT22;65470;47.324;8.548;2023-05-20T05:44:38;15.90;99.90
32811;DHT22;65470;47.324;8.548;2023-05-20T05:47:04;16.00;99.90
32811;DHT22;65470;47.324;8.548;2023-05-20T05:49:31;16.00;99.90
32811;DHT22;65470;47.324;8.548;2023-05-20T05:51:56;16.10;99.90
32811;DHT22;65470;47.324;8.548;2023-05-20T05:54:22;16.20;99.90
32811;DHT22;65470;47.324;8.548;2023-05-20T05:56:49;16.20;99.90
32811;DHT22;65470;47.324;8.548;2023-05-20T05:59:15;16.20;99.90
32811;DHT22;65470;47.324;8.548;2023-05-20T06:01:40;16.30;99.90
32811;DHT22;65470;47.324;8.548;2023-05-20T06:04:06;16.40;99.90
32811;DHT22;65470;47.324;8.548;2023-05-20T06:06:32;16.40;99.90
32811;DHT22;65470;47.324;8.548;2023-05-20T06:08:58;16.50;99.90
32811;DHT22;65470;47.324;8.548;2023-05-20T06:11:24;16.70;99.90
32811;DHT22;65470;47.324;8.548;2023-05-20T06:13:50;16.80;99.90
32811;DHT22;65470;47.324;8.548;2023-05-20T06:16:16;17.10;99.90
32811;DHT22;65470;47.324;8.548;2023-05-20T06:18:42;17.40;99.90
32811;DHT22;65470;47.324;8.548;2023-05-20T06:21:08;17.70;99.90
32811;DHT22;65470;47.324;8.548;2023-05-20T06:23:34;17.80;99.90
32811;DHT22;65470;47.324;8.548;2023-05-20T06:26:00;18.00;99.90
32811;DHT22;65470;47.324;8.548;2023-05-20T06:28:26;18.20;99.90
32811;DHT22;65470;47.324;8.548;2023-05-20T06:30:53;18.10;99.90
32811;DHT22;65470;47.324;8.548;2023-05-20T06:33:22;18.10;99.90
32811;DHT22;65470;47.324;8.548;2023-05-20T06:35:54;18.10;99.90
32811;DHT22;65470;47.324;8.548;2023-05-20T06:38:20;18.00;99.90
32811;DHT22;65470;47.324;8.548;2023-05-20T06:40:46;17.90;99.90
32811;DHT22;65470;47.324;8.548;2023-05-20T06:43:13;17.80;99.90
32811;DHT22;65470;47.324;8.548;2023-05-20T06:45:38;17.60;99.90
32811;DHT22;65470;47.324;8.548;2023-05-20T06:48:04;17.30;99.90
32811;DHT22;65470;47.324;8.548;2023-05-20T06:50:30;17.30;99.90
32811;DHT22;65470;47.324;8.548;2023-05-20T06:52:56;17.20;99.90
32811;DHT22;65470;47.324;8.548;2023-05-20T06:55:21;17.20;99.90
32811;DHT22;65470;47.324;8.548;2023-05-20T06:57:47;17.20;99.90
32811;DHT22;65470;47.324;8.548;2023-05-20T07:00:13;17.40;99.90
32811;DHT22;65470;47.324;8.548;2023-05-20T07:02:39;17.60;99.90
32811;DHT22;65470;47.324;8.548;2023-05-20T07:05:05;17.80;99.90
32811;DHT22;65470;47.324;8.548;2023-05-20T07:07:31;18.00;99.90
32811;DHT22;65470;47.324;8.548;2023-05-20T07:09:57;18.10;99.90
32811;DHT22;65470;47.324;8.548;2023-05-20T07:12:23;18.30;99.90
32811;DHT22;65470;47.324;8.548;2023-05-20T07:14:49;18.40;99.90
32811;DHT22;65470;47.324;8.548;2023-05-20T07:17:14;18.50;99.90
32811;DHT22;65470;47.324;8.548;2023-05-20T07:19:40;18.50;99.90
32811;DHT22;65470;47.324;8.548;2023-05-20T07:22:06;18.50;99.90
32811;DHT22;65470;47.324;8.548;2023-05-20T07:24:32;18.50;99.90
32811;DHT22;65470;47.324;8.548;2023-05-20T07:26:58;18.30;99.90
32811;DHT22;65470;47.324;8.548;2023-05-20T07:29:24;18.10;99.90
32811;DHT22;65470;47.324;8.548;2023-05-20T07:31:49;18.10;99.90
32811;DHT22;65470;47.324;8.548;2023-05-20T07:34:15;17.90;99.90
32811;DHT22;65470;47.324;8.548;2023-05-20T07:36:40;17.70;99.90
32811;DHT22;65470;47.324;8.548;2023-05-20T07:39:08;17.60;99.90
32811;DHT22;65470;47.324;8.548;2023-05-20T07:41:35;17.60;99.90
32811;DHT22;65470;47.324;8.548;2023-05-20T07:44:02;17.50;99.90
32811;DHT22;65470;47.324;8.548;2023-05-20T07:46:28;17.50;99.90
32811;DHT22;65470;47.324;8.548;2023-05-20T07:48:54;17.60;99.90
32811;DHT22;65470;47.324;8.548;2023-05-20T07:51:19;17.60;99.90
32811;DHT22;65470;47.324;8.548;2023-05-20T07:53:45;17.70;99.90
32811;DHT22;65470;47.324;8.548;2023-05-20T07:56:11;17.90;99.90
32811;DHT22;65470;47.324;8.548;2023-05-20T07:58:39;18.10;99.90
32811;DHT22;65470;47.324;8.548;2023-05-20T08:01:05;18.10;99.90
32811;DHT22;65470;47.324;8.548;2023-05-20T08:03:31;18.30;99.90
32811;DHT22;65470;47.324;8.548;2023-05-20T08:05:57;18.50;99.90
32811;DHT22;65470;47.324;8.548;2023-05-20T08:08:23;18.70;99.90
32811;DHT22;65470;47.324;8.548;2023-05-20T08:10:50;18.90;99.90
32811;DHT22;65470;47.324;8.548;2023-05-20T08:13:16;19.10;99.90
32811;DHT22;65470;47.324;8.548;2023-05-20T08:15:41;19.20;99.90
32811;DHT22;65470;47.324;8.548;2023-05-20T08:18:07;19.20;99.90
32811;DHT22;65470;47.324;8.548;2023-05-20T08:20:33;19.30;99.90
32811;DHT22;65470;47.324;8.548;2023-05-20T08:22:58;19.50;99.90
32811;DHT22;65470;47.324;8.548;2023-05-20T08:25:24;19.70;99.90
32811;DHT22;65470;47.324;8.548;2023-05-20T08:27:50;19.80;99.90
32811;DHT22;65470;47.324;8.548;2023-05-20T08:30:15;19.60;99.90
32811;DHT22;65470;47.324;8.548;2023-05-20T08:32:41;19.50;99.90
32811;DHT22;65470;47.324;8.548;2023-05-20T08:35:07;19.50;99.90
32811;DHT22;65470;47.324;8.548;2023-05-20T08:37:32;19.30;99.90
32811;DHT22;65470;47.324;8.548;2023-05-20T08:39:58;19.30;99.90
32811;DHT22;65470;47.324;8.548;2023-05-20T08:42:24;19.00;99.90
32811;DHT22;65470;47.324;8.548;2023-05-20T08:44:51;18.70;99.90
32811;DHT22;65470;47.324;8.548;2023-05-20T08:47:21;18.60;99.90
32811;DHT22;65470;47.324;8.548;2023-05-20T08:49:47;18.60;99.90
32811;DHT22;65470;47.324;8.548;2023-05-20T08:52:15;18.50;99.90
32811;DHT22;65470;47.324;8.548;2023-05-20T08:54:46;18.50;99.90
32811;DHT22;65470;47.324;8.548;2023-05-20T08:57:12;18.40;99.90
32811;DHT22;65470;47.324;8.548;2023-05-20T08:59:45;18.60;99.90
32811;DHT22;65470;47.324;8.548;2023-05-20T09:02:13;18.60;99.90
32811;DHT22;65470;47.324;8.548;2023-05-20T09:04:39;18.90;99.90
32811;DHT22;65470;47.324;8.548;2023-05-20T09:07:05;19.20;99.90
32811;DHT22;65470;47.324;8.548;2023-05-20T09:09:33;19.40;99.90
32811;DHT22;65470;47.324;8.548;2023-05-20T09:12:00;19.70;99.90
32811;DHT22;65470;47.324;8.548;2023-05-20T09:14:30;19.70;99.90
32811;DHT22;65470;47.324;8.548;2023-05-20T09:16:56;19.70;99.90
32811;DHT22;65470;47.324;8.548;2023-05-20T09:19:22;19.80;99.90
32811;DHT22;65470;47.324;8.548;2023-05-20T09:21:51;19.80;99.90
32811;DHT22;65470;47.324;8.548;2023-05-20T09:24:22;20.10;99.90
32811;DHT22;65470;47.324;8.548;2023-05-20T09:26:48;20.30;99.90
32811;DHT22;65470;47.324;8.548;2023-05-20T09:29:14;20.50;99.90
32811;DHT22;65470;47.324;8.548;2023-05-20T09:31:40;20.70;99.90
32811;DHT22;65470;47.324;8.548;2023-05-20T09:34:06;21.10;99.90
32811;DHT22;65470;47.324;8.548;2023-05-20T09:36:33;21.60;99.90
32811;DHT22;65470;47.324;8.548;2023-05-20T09:39:01;21.90;99.90
32811;DHT22;65470;47.324;8.548;2023-05-20T09:42:19;22.20;99.90
32811;DHT22;65470;47.324;8.548;2023-05-20T09:44:20;22.50;99.90
32811;DHT22;65470;47.324;8.548;2023-05-20T09:46:48;22.40;99.90
32811;DHT22;65470;47.324;8.548;2023-05-20T09:49:14;22.20;99.90
32811;DHT22;65470;47.324;8.548;2023-05-20T09:51:41;21.80;99.90
32811;DHT22;65470;47.324;8.548;2023-05-20T09:54:08;21.80;99.90
32811;DHT22;65470;47.324;8.548;2023-05-20T09:56:35;21.80;99.90
32811;DHT22;65470;47.324;8.548;2023-05-20T09:59:01;21.80;99.90
32811;DHT22;65470;47.324;8.548;2023-05-20T10:01:29;21.70;99.90
32811;DHT22;65470;47.324;8.548;2023-05-20T10:03:55;21.70;99.90
32811;DHT22;65470;47.324;8.548;2023-05-20T10:06:26;21.90;99.90
32811;DHT22;65470;47.324;8.548;2023-05-20T10:17:50;21.40;99.90
32811;DHT22;65470;47.324;8.548;2023-05-20T10:20:17;21.10;99.90
32811;DHT22;65470;47.324;8.548;2023-05-20T10:22:43;21.10;99.90
32811;DHT22;65470;47.324;8.548;2023-05-20T10:25:12;20.80;99.90
32811;DHT22;65470;47.324;8.548;2023-05-20T10:27:49;20.70;99.90
32811;DHT22;65470;47.324;8.548;2023-05-20T10:30:21;20.70;99.90
32811;DHT22;65470;47.324;8.548;2023-05-20T10:32:57;20.60;99.90
32811;DHT22;65470;47.324;8.548;2023-05-20T10:35:27;20.90;99.90
32811;DHT22;65470;47.324;8.548;2023-05-20T10:37:54;21.30;99.90
32811;DHT22;65470;47.324;8.548;2023-05-20T10:40:21;21.60;99.90
32811;DHT22;65470;47.324;8.548;2023-05-20T10:42:47;21.70;99.90
32811;DHT22;65470;47.324;8.548;2023-05-20T10:45:26;21.80;99.90
32811;DHT22;65470;47.324;8.548;2023-05-20T10:47:54;21.90;99.90
32811;DHT22;65470;47.324;8.548;2023-05-20T10:50:37;21.80;99.90
32811;DHT22;65470;47.324;8.548;2023-05-20T10:53:06;21.70;99.90
32811;DHT22;65470;47.324;8.548;2023-05-20T10:55:37;21.90;99.90
32811;DHT22;65470;47.324;8.548;2023-05-20T10:58:04;22.20;99.90
32811;DHT22;65470;47.324;8.548;2023-05-20T11:00:34;22.40;99.90
32811;DHT22;65470;47.324;8.548;2023-05-20T11:03:01;22.50;99.90
32811;DHT22;65470;47.324;8.548;2023-05-20T11:05:28;22.60;99.90
32811;DHT22;65470;47.324;8.548;2023-05-20T11:08:08;22.50;99.90
32811;DHT22;65470;47.324;8.548;2023-05-20T11:10:35;22.60;99.90
32811;DHT22;65470;47.324;8.548;2023-05-20T11:13:02;22.80;99.90
32811;DHT22;65470;47.324;8.548;2023-05-20T11:15:28;23.00;99.90
32811;DHT22;65470;47.324;8.548;2023-05-20T11:17:56;23.10;99.90
32811;DHT22;65470;47.324;8.548;2023-05-20T11:20:23;23.20;99.90
32811;DHT22;65470;47.324;8.548;2023-05-20T11:22:55;23.70;99.90
32811;DHT22;65470;47.324;8.548;2023-05-20T11:25:21;24.20;98.30
32811;DHT22;65470;47.324;8.548;2023-05-20T11:27:50;24.80;97.10
32811;DHT22;65470;47.324;8.548;2023-05-20T11:30:16;25.60;95.30
32811;DHT22;65470;47.324;8.548;2023-05-20T11:32:59;26.80;96.80
32811;DHT22;65470;47.324;8.548;2023-05-20T11:35:27;27.70;92.10
32811;DHT22;65470;47.324;8.548;2023-05-20T11:38:06;27.30;90.90
32811;DHT22;65470;47.324;8.548;2023-05-20T11:40:34;26.90;91.10
32811;DHT22;65470;47.324;8.548;2023-05-20T11:43:02;26.40;91.10
32811;DHT22;65470;47.324;8.548;2023-05-20T11:45:56;25.50;90.90
32811;DHT22;65470;47.324;8.548;2023-05-20T11:48:25;24.90;93.20
32811;DHT22;65470;47.324;8.548;2023-05-20T11:50:55;24.20;93.80
32811;DHT22;65470;47.324;8.548;2023-05-20T11:53:22;23.50;94.70
32811;DHT22;65470;47.324;8.548;2023-05-20T11:55:58;23.10;95.70
32811;DHT22;65470;47.324;8.548;2023-05-20T11:58:31;22.90;96.70
32811;DHT22;65470;47.324;8.548;2023-05-20T12:00:57;22.70;97.10
32811;DHT22;65470;47.324;8.548;2023-05-20T12:03:23;22.50;97.40
32811;DHT22;65470;47.324;8.548;2023-05-20T12:05:49;22.30;98.20
32811;DHT22;65470;47.324;8.548;2023-05-20T12:08:15;22.40;98.80
32811;DHT22;65470;47.324;8.548;2023-05-20T12:10:41;22.60;99.20
32811;DHT22;65470;47.324;8.548;2023-05-20T12:13:09;22.70;99.70
32811;DHT22;65470;47.324;8.548;2023-05-20T12:15:35;23.20;99.60
32811;DHT22;65470;47.324;8.548;2023-05-20T12:18:01;23.60;98.60
32811;DHT22;65470;47.324;8.548;2023-05-20T12:20:27;23.70;97.30
32811;DHT22;65470;47.324;8.548;2023-05-20T12:22:54;23.90;97.40
32811;DHT22;65470;47.324;8.548;2023-05-20T12:25:19;23.90;95.90
32811;DHT22;65470;47.324;8.548;2023-05-20T12:27:47;23.70;96.60
32811;DHT22;65470;47.324;8.548;2023-05-20T12:30:17;23.70;97.30
32811;DHT22;65470;47.324;8.548;2023-05-20T12:32:44;23.70;96.70
32811;DHT22;65470;47.324;8.548;2023-05-20T12:35:10;23.40;97.60
32811;DHT22;65470;47.324;8.548;2023-05-20T12:37:40;23.40;97.50
32811;DHT22;65470;47.324;8.548;2023-05-20T12:40:07;23.10;96.60
32811;DHT22;65470;47.324;8.548;2023-05-20T12:42:37;22.80;97.20
32811;DHT22;65470;47.324;8.548;2023-05-20T12:45:03;22.60;98.30
32811;DHT22;65470;47.324;8.548;2023-05-20T12:47:30;22.60;98.70
32811;DHT22;65470;47.324;8.548;2023-05-20T12:49:56;22.60;99.30
32811;DHT22;65470;47.324;8.548;2023-05-20T12:52:21;22.70;98.40
32811;DHT22;65470;47.324;8.548;2023-05-20T12:54:47;23.00;98.60
32811;DHT22;65470;47.324;8.548;2023-05-20T12:57:13;23.10;98.30
32811;DHT22;65470;47.324;8.548;2023-05-20T12:59:38;22.90;97.60
32811;DHT22;65470;47.324;8.548;2023-05-20T13:02:04;22.70;98.10
32811;DHT22;65470;47.324;8.548;2023-05-20T13:04:29;22.80;98.20
32811;DHT22;65470;47.324;8.548;2023-05-20T13:06:56;22.80;98.20
32811;DHT22;65470;47.324;8.548;2023-05-20T13:09:22;22.70;98.50
32811;DHT22;65470;47.324;8.548;2023-05-20T13:11:47;22.60;98.60
32811;DHT22;65470;47.324;8.548;2023-05-20T13:14:13;22.50;99.10
32811;DHT22;65470;47.324;8.548;2023-05-20T13:16:39;22.50;99.50
32811;DHT22;65470;47.324;8.548;2023-05-20T13:19:05;22.50;99.40
32811;DHT22;65470;47.324;8.548;2023-05-20T13:21:30;22.50;99.80
32811;DHT22;65470;47.324;8.548;2023-05-20T13:23:56;22.30;99.90
32811;DHT22;65470;47.324;8.548;2023-05-20T13:26:22;22.20;99.90
32811;DHT22;65470;47.324;8.548;2023-05-20T13:28:48;22.10;99.90
32811;DHT22;65470;47.324;8.548;2023-05-20T13:31:14;21.90;99.90
32811;DHT22;65470;47.324;8.548;2023-05-20T13:33:40;21.90;99.90
32811;DHT22;65470;47.324;8.548;2023-05-20T13:36:06;21.80;99.90
32811;DHT22;65470;47.324;8.548;2023-05-20T13:38:31;21.80;99.90
32811;DHT22;65470;47.324;8.548;2023-05-20T13:40:57;21.90;99.90
32811;DHT22;65470;47.324;8.548;2023-05-20T13:43:24;22.10;99.90
32811;DHT22;65470;47.324;8.548;2023-05-20T13:45:53;22.30;99.90
32811;DHT22;65470;47.324;8.548;2023-05-20T13:48:19;22.40;99.90
32811;DHT22;65470;47.324;8.548;2023-05-20T13:50:45;22.60;99.90
32811;DHT22;65470;47.324;8.548;2023-05-20T13:53:11;22.90;99.50
32811;DHT22;65470;47.324;8.548;2023-05-20T13:55:39;22.90;99.30
32811;DHT22;65470;47.324;8.548;2023-05-20T13:58:04;22.80;99.30
32811;DHT22;65470;47.324;8.548;2023-05-20T14:00:37;22.60;99.90
32811;DHT22;65470;47.324;8.548;2023-05-20T14:03:03;22.40;99.90
32811;DHT22;65470;47.324;8.548;2023-05-20T14:05:32;22.40;99.90
32811;DHT22;65470;47.324;8.548;2023-05-20T14:07:58;22.30;99.90
32811;DHT22;65470;47.324;8.548;2023-05-20T14:10:24;22.00;99.90
32811;DHT22;65470;47.324;8.548;2023-05-20T14:12:51;22.00;99.90
32811;DHT22;65470;47.324;8.548;2023-05-20T14:15:17;22.10;99.90
32811;DHT22;65470;47.324;8.548;2023-05-20T14:17:43;22.10;99.90
32811;DHT22;65470;47.324;8.548;2023-05-20T14:20:09;22.20;99.90
32811;DHT22;65470;47.324;8.548;2023-05-20T14:22:35;22.20;99.90
32811;DHT22;65470;47.324;8.548;2023-05-20T14:25:00;22.20;99.90
32811;DHT22;65470;47.324;8.548;2023-05-20T14:27:26;22.30;99.90
32811;DHT22;65470;47.324;8.548;2023-05-20T14:29:52;22.30;99.90
32811;DHT22;65470;47.324;8.548;2023-05-20T14:32:17;22.30;99.90
32811;DHT22;65470;47.324;8.548;2023-05-20T14:34:43;22.10;99.90
32811;DHT22;65470;47.324;8.548;2023-05-20T14:37:08;22.10;99.90
32811;DHT22;65470;47.324;8.548;2023-05-20T14:39:36;22.00;99.90
32811;DHT22;65470;47.324;8.548;2023-05-20T14:42:02;21.80;99.90
32811;DHT22;65470;47.324;8.548;2023-05-20T14:44:29;21.70;99.90
32811;DHT22;65470;47.324;8.548;2023-05-20T14:46:54;21.60;99.90
32811;DHT22;65470;47.324;8.548;2023-05-20T14:49:20;21.40;99.90
32811;DHT22;65470;47.324;8.548;2023-05-20T14:51:46;21.30;99.90
32811;DHT22;65470;47.324;8.548;2023-05-20T14:54:12;21.30;99.90
32811;DHT22;65470;47.324;8.548;2023-05-20T14:56:39;21.20;99.90
32811;DHT22;65470;47.324;8.548;2023-05-20T14:59:05;21.20;99.90
32811;DHT22;65470;47.324;8.548;2023-05-20T15:01:31;21.00;99.90
32811;DHT22;65470;47.324;8.548;2023-05-20T15:03:57;21.10;99.90
32811;DHT22;65470;47.324;8.548;2023-05-20T15:06:23;21.10;99.90
32811;DHT22;65470;47.324;8.548;2023-05-20T15:08:49;21.10;99.90
32811;DHT22;65470;47.324;8.548;2023-05-20T15:11:14;21.10;99.90
32811;DHT22;65470;47.324;8.548;2023-05-20T15:13:40;21.20;99.90
32811;DHT22;65470;47.324;8.548;2023-05-20T15:16:06;21.30;99.90
32811;DHT22;65470;47.324;8.548;2023-05-20T15:18:32;21.30;99.90
32811;DHT22;65470;47.324;8.548;2023-05-20T15:20:57;21.30;99.90
32811;DHT22;65470;47.324;8.548;2023-05-20T15:23:25;21.40;99.90
32811;DHT22;65470;47.324;8.548;2023-05-20T15:25:51;21.30;99.90
32811;DHT22;65470;47.324;8.548;2023-05-20T15:28:17;21.30;99.90
32811;DHT22;65470;47.324;8.548;2023-05-20T15:30:44;21.20;99.90
32811;DHT22;65470;47.324;8.548;2023-05-20T15:33:10;21.20;99.90
32811;DHT22;65470;47.324;8.548;2023-05-20T15:35:36;21.20;99.90
32811;DHT22;65470;47.324;8.548;2023-05-20T15:38:01;21.20;99.90
32811;DHT22;65470;47.324;8.548;2023-05-20T15:40:27;21.20;99.90